sensor_id;sensor_type;location;lat;lon;timestamp;P1;durP1;ratioP1;P2;durP2;ratioP2
56136;SDS011;42008;52.934;5.884;2022-10-31T00:01:15;42.13;;;19.90;;
56136;SDS011;42008;52.934;5.884;2022-10-31T00:03:47;37.33;;;20.50;;
56136;SDS011;42008;52.934;5.884;2022-10-31T00:06:13;38.10;;;20.77;;
56136;SDS011;42008;52.934;5.884;2022-10-31T00:08:39;37.10;;;20.73;;
56136;SDS011;42008;52.934;5.884;2022-10-31T00:11:08;41.23;;;20.33;;
56136;SDS011;42008;52.934;5.884;2022-10-31T00:13:34;36.97;;;21.53;;
56136;SDS011;42008;52.934;5.884;2022-10-31T00:16:00;35.97;;;20.00;;
56136;SDS011;42008;52.934;5.884;2022-10-31T00:18:25;39.73;;;21.13;;
56136;SDS011;42008;52.934;5.884;2022-10-31T00:21:01;35.63;;;20.93;;
56136;SDS011;42008;52.934;5.884;2022-10-31T00:23:27;37.50;;;21.43;;
56136;SDS011;42008;52.934;5.884;2022-10-31T00:25:53;43.03;;;21.47;;
56136;SDS011;42008;52.934;5.884;2022-10-31T00:28:19;39.63;;;23.10;;
56136;SDS011;42008;52.934;5.884;2022-10-31T00:30:45;43.97;;;22.97;;
56136;SDS011;42008;52.934;5.884;2022-10-31T00:33:10;45.93;;;24.20;;
56136;SDS011;42008;52.934;5.884;2022-10-31T00:35:36;47.73;;;24.80;;
56136;SDS011;42008;52.934;5.884;2022-10-31T00:38:01;40.53;;;23.03;;
56136;SDS011;42008;52.934;5.884;2022-10-31T00:40:27;46.00;;;23.47;;
56136;SDS011;42008;52.934;5.884;2022-10-31T00:42:52;39.60;;;22.53;;
56136;SDS011;42008;52.934;5.884;2022-10-31T00:45:18;42.40;;;23.03;;
56136;SDS011;42008;52.934;5.884;2022-10-31T00:47:43;41.50;;;22.43;;
56136;SDS011;42008;52.934;5.884;2022-10-31T00:50:09;37.13;;;22.07;;
56136;SDS011;42008;52.934;5.884;2022-10-31T00:52:35;34.53;;;20.47;;
56136;SDS011;42008;52.934;5.884;2022-10-31T00:55:00;34.57;;;20.90;;
56136;SDS011;42008;52.934;5.884;2022-10-31T00:57:26;38.13;;;21.70;;
56136;SDS011;42008;52.934;5.884;2022-10-31T00:59:51;37.63;;;21.27;;
56136;SDS011;42008;52.934;5.884;2022-10-31T01:02:17;43.13;;;23.43;;
56136;SDS011;42008;52.934;5.884;2022-10-31T01:04:43;42.67;;;22.30;;
56136;SDS011;42008;52.934;5.884;2022-10-31T01:07:09;39.37;;;23.10;;
56136;SDS011;42008;52.934;5.884;2022-10-31T01:09:37;44.13;;;24.10;;
56136;SDS011;42008;52.934;5.884;2022-10-31T01:12:02;44.13;;;23.60;;
56136;SDS011;42008;52.934;5.884;2022-10-31T01:14:28;39.60;;;23.47;;
56136;SDS011;42008;52.934;5.884;2022-10-31T01:16:54;45.00;;;23.27;;
56136;SDS011;42008;52.934;5.884;2022-10-31T01:19:19;37.50;;;22.03;;
56136;SDS011;42008;52.934;5.884;2022-10-31T01:21:45;39.87;;;21.40;;
56136;SDS011;42008;52.934;5.884;2022-10-31T01:24:10;38.40;;;20.47;;
56136;SDS011;42008;52.934;5.884;2022-10-31T01:26:36;35.93;;;19.37;;
56136;SDS011;42008;52.934;5.884;2022-10-31T01:29:05;36.83;;;20.50;;
56136;SDS011;42008;52.934;5.884;2022-10-31T01:31:34;33.33;;;19.70;;
56136;SDS011;42008;52.934;5.884;2022-10-31T01:34:01;39.57;;;21.67;;
56136;SDS011;42008;52.934;5.884;2022-10-31T01:36:29;36.93;;;20.63;;
56136;SDS011;42008;52.934;5.884;2022-10-31T01:38:58;34.43;;;21.27;;
56136;SDS011;42008;52.934;5.884;2022-10-31T01:41:26;33.17;;;20.33;;
56136;SDS011;42008;52.934;5.884;2022-10-31T01:46:52;43.43;;;20.27;;
56136;SDS011;42008;52.934;5.884;2022-10-31T01:49:23;35.40;;;21.00;;
56136;SDS011;42008;52.934;5.884;2022-10-31T01:52:18;38.60;;;21.93;;
56136;SDS011;42008;52.934;5.884;2022-10-31T01:55:03;38.87;;;21.63;;
56136;SDS011;42008;52.934;5.884;2022-10-31T01:57:34;32.80;;;20.60;;
56136;SDS011;42008;52.934;5.884;2022-10-31T02:00:06;37.90;;;20.87;;
56136;SDS011;42008;52.934;5.884;2022-10-31T02:02:34;36.40;;;21.30;;
56136;SDS011;42008;52.934;5.884;2022-10-31T02:05:00;38.03;;;21.90;;
56136;SDS011;42008;52.934;5.884;2022-10-31T02:07:33;36.60;;;21.13;;
56136;SDS011;42008;52.934;5.884;2022-10-31T02:10:04;37.03;;;21.47;;
56136;SDS011;42008;52.934;5.884;2022-10-31T02:12:30;34.13;;;21.20;;
56136;SDS011;42008;52.934;5.884;2022-10-31T02:14:58;33.93;;;21.50;;
56136;SDS011;42008;52.934;5.884;2022-10-31T02:17:24;37.60;;;20.97;;
56136;SDS011;42008;52.934;5.884;2022-10-31T02:25:46;36.63;;;21.90;;
56136;SDS011;42008;52.934;5.884;2022-10-31T02:30:57;35.57;;;20.40;;
56136;SDS011;42008;52.934;5.884;2022-10-31T02:33:46;34.10;;;20.23;;
56136;SDS011;42008;52.934;5.884;2022-10-31T02:36:40;33.97;;;20.30;;
56136;SDS011;42008;52.934;5.884;2022-10-31T02:39:13;35.17;;;20.13;;
56136;SDS011;42008;52.934;5.884;2022-10-31T02:47:23;34.28;;;21.45;;
56136;SDS011;42008;52.934;5.884;2022-10-31T02:50:06;34.27;;;21.60;;
56136;SDS011;42008;52.934;5.884;2022-10-31T02:52:33;38.67;;;21.80;;
56136;SDS011;42008;52.934;5.884;2022-10-31T02:55:47;34.63;;;21.47;;
56136;SDS011;42008;52.934;5.884;2022-10-31T02:58:00;38.60;;;22.40;;
56136;SDS011;42008;52.934;5.884;2022-10-31T03:03:19;37.23;;;22.60;;
56136;SDS011;42008;52.934;5.884;2022-10-31T03:08:47;41.83;;;24.07;;
56136;SDS011;42008;52.934;5.884;2022-10-31T03:11:15;46.07;;;25.10;;
56136;SDS011;42008;52.934;5.884;2022-10-31T03:19:10;43.93;;;24.93;;
56136;SDS011;42008;52.934;5.884;2022-10-31T03:21:41;38.30;;;23.87;;
56136;SDS011;42008;52.934;5.884;2022-10-31T03:24:32;45.13;;;25.10;;
56136;SDS011;42008;52.934;5.884;2022-10-31T03:27:02;40.03;;;24.03;;
56136;SDS011;42008;52.934;5.884;2022-10-31T03:29:31;37.60;;;24.37;;
56136;SDS011;42008;52.934;5.884;2022-10-31T03:32:02;39.23;;;24.73;;
56136;SDS011;42008;52.934;5.884;2022-10-31T03:34:32;40.65;;;25.08;;
56136;SDS011;42008;52.934;5.884;2022-10-31T03:37:02;41.47;;;25.83;;
56136;SDS011;42008;52.934;5.884;2022-10-31T03:39:31;40.53;;;24.30;;
56136;SDS011;42008;52.934;5.884;2022-10-31T03:42:04;40.10;;;25.07;;
56136;SDS011;42008;52.934;5.884;2022-10-31T03:44:32;41.27;;;25.10;;
56136;SDS011;42008;52.934;5.884;2022-10-31T03:47:00;45.23;;;26.03;;
56136;SDS011;42008;52.934;5.884;2022-10-31T03:49:28;42.40;;;25.90;;
56136;SDS011;42008;52.934;5.884;2022-10-31T03:51:56;41.77;;;27.10;;
56136;SDS011;42008;52.934;5.884;2022-10-31T03:54:38;49.63;;;27.87;;
56136;SDS011;42008;52.934;5.884;2022-10-31T04:00:04;47.57;;;28.70;;
56136;SDS011;42008;52.934;5.884;2022-10-31T04:02:35;50.40;;;29.20;;
56136;SDS011;42008;52.934;5.884;2022-10-31T04:05:05;47.60;;;27.70;;
56136;SDS011;42008;52.934;5.884;2022-10-31T04:07:33;44.07;;;27.67;;
56136;SDS011;42008;52.934;5.884;2022-10-31T04:10:04;45.17;;;28.63;;
56136;SDS011;42008;52.934;5.884;2022-10-31T04:12:32;46.20;;;28.07;;
56136;SDS011;42008;52.934;5.884;2022-10-31T04:15:00;46.13;;;29.33;;
56136;SDS011;42008;52.934;5.884;2022-10-31T04:17:29;43.87;;;27.80;;
56136;SDS011;42008;52.934;5.884;2022-10-31T04:20:01;45.10;;;28.93;;
56136;SDS011;42008;52.934;5.884;2022-10-31T04:22:27;45.43;;;28.03;;
56136;SDS011;42008;52.934;5.884;2022-10-31T04:24:53;44.97;;;29.17;;
56136;SDS011;42008;52.934;5.884;2022-10-31T04:27:19;44.07;;;27.90;;
56136;SDS011;42008;52.934;5.884;2022-10-31T04:29:44;42.23;;;27.63;;
56136;SDS011;42008;52.934;5.884;2022-10-31T04:32:10;46.40;;;27.60;;
56136;SDS011;42008;52.934;5.884;2022-10-31T04:34:35;48.13;;;27.63;;
56136;SDS011;42008;52.934;5.884;2022-10-31T04:37:01;42.77;;;26.53;;
56136;SDS011;42008;52.934;5.884;2022-10-31T04:39:26;42.63;;;27.00;;
56136;SDS011;42008;52.934;5.884;2022-10-31T04:41:52;44.67;;;29.10;;
56136;SDS011;42008;52.934;5.884;2022-10-31T04:44:17;52.17;;;31.20;;
56136;SDS011;42008;52.934;5.884;2022-10-31T04:46:43;50.03;;;31.17;;
56136;SDS011;42008;52.934;5.884;2022-10-31T04:49:09;58.53;;;33.07;;
56136;SDS011;42008;52.934;5.884;2022-10-31T04:51:34;54.60;;;31.30;;
56136;SDS011;42008;52.934;5.884;2022-10-31T04:54:00;54.30;;;32.23;;
56136;SDS011;42008;52.934;5.884;2022-10-31T04:56:26;58.33;;;32.93;;
56136;SDS011;42008;52.934;5.884;2022-10-31T04:58:51;54.93;;;32.43;;
56136;SDS011;42008;52.934;5.884;2022-10-31T05:01:17;52.47;;;32.23;;
56136;SDS011;42008;52.934;5.884;2022-10-31T05:03:42;51.67;;;31.80;;
56136;SDS011;42008;52.934;5.884;2022-10-31T05:06:08;40.40;;;27.37;;
56136;SDS011;42008;52.934;5.884;2022-10-31T05:08:34;44.83;;;30.60;;
56136;SDS011;42008;52.934;5.884;2022-10-31T05:11:03;42.67;;;27.73;;
56136;SDS011;42008;52.934;5.884;2022-10-31T05:13:29;52.63;;;29.60;;
56136;SDS011;42008;52.934;5.884;2022-10-31T05:15:55;52.67;;;29.30;;
56136;SDS011;42008;52.934;5.884;2022-10-31T05:18:20;49.67;;;28.97;;
56136;SDS011;42008;52.934;5.884;2022-10-31T05:20:46;48.90;;;29.43;;
56136;SDS011;42008;52.934;5.884;2022-10-31T05:23:12;46.10;;;28.80;;
56136;SDS011;42008;52.934;5.884;2022-10-31T05:25:39;61.03;;;30.93;;
56136;SDS011;42008;52.934;5.884;2022-10-31T05:28:05;53.77;;;30.70;;
56136;SDS011;42008;52.934;5.884;2022-10-31T05:30:31;56.23;;;32.80;;
56136;SDS011;42008;52.934;5.884;2022-10-31T05:32:58;55.77;;;33.93;;
56136;SDS011;42008;52.934;5.884;2022-10-31T05:35:24;61.43;;;36.03;;
56136;SDS011;42008;52.934;5.884;2022-10-31T05:37:52;58.33;;;34.37;;
56136;SDS011;42008;52.934;5.884;2022-10-31T05:40:18;52.70;;;32.63;;
56136;SDS011;42008;52.934;5.884;2022-10-31T05:42:45;46.33;;;30.40;;
56136;SDS011;42008;52.934;5.884;2022-10-31T05:45:12;52.73;;;30.67;;
56136;SDS011;42008;52.934;5.884;2022-10-31T05:47:39;83.90;;;32.70;;
56136;SDS011;42008;52.934;5.884;2022-10-31T05:50:05;119.63;;;40.53;;
56136;SDS011;42008;52.934;5.884;2022-10-31T05:52:31;53.83;;;32.63;;
56136;SDS011;42008;52.934;5.884;2022-10-31T05:54:57;64.70;;;33.60;;
56136;SDS011;42008;52.934;5.884;2022-10-31T05:57:22;82.20;;;37.13;;
56136;SDS011;42008;52.934;5.884;2022-10-31T05:59:48;78.90;;;35.50;;
56136;SDS011;42008;52.934;5.884;2022-10-31T06:02:17;68.53;;;34.93;;
56136;SDS011;42008;52.934;5.884;2022-10-31T06:04:44;60.40;;;34.10;;
56136;SDS011;42008;52.934;5.884;2022-10-31T06:07:09;73.83;;;35.50;;
56136;SDS011;42008;52.934;5.884;2022-10-31T06:09:35;86.60;;;35.87;;
56136;SDS011;42008;52.934;5.884;2022-10-31T06:12:00;87.93;;;36.20;;
56136;SDS011;42008;52.934;5.884;2022-10-31T06:14:26;213.63;;;40.27;;
56136;SDS011;42008;52.934;5.884;2022-10-31T06:16:51;384.77;;;51.90;;
56136;SDS011;42008;52.934;5.884;2022-10-31T06:19:18;136.00;;;35.47;;
56136;SDS011;42008;52.934;5.884;2022-10-31T06:21:44;100.90;;;36.83;;
56136;SDS011;42008;52.934;5.884;2022-10-31T06:24:09;101.70;;;33.47;;
56136;SDS011;42008;52.934;5.884;2022-10-31T06:26:35;179.00;;;37.33;;
56136;SDS011;42008;52.934;5.884;2022-10-31T06:29:00;143.63;;;34.30;;
56136;SDS011;42008;52.934;5.884;2022-10-31T06:31:26;142.77;;;32.87;;
56136;SDS011;42008;52.934;5.884;2022-10-31T06:33:52;192.47;;;36.43;;
56136;SDS011;42008;52.934;5.884;2022-10-31T06:36:17;193.23;;;38.10;;
56136;SDS011;42008;52.934;5.884;2022-10-31T06:38:43;112.30;;;31.93;;
56136;SDS011;42008;52.934;5.884;2022-10-31T06:41:08;415.33;;;61.53;;
56136;SDS011;42008;52.934;5.884;2022-10-31T06:43:34;100.97;;;37.30;;
56136;SDS011;42008;52.934;5.884;2022-10-31T06:46:03;214.63;;;44.47;;
56136;SDS011;42008;52.934;5.884;2022-10-31T06:48:30;122.53;;;37.40;;
56136;SDS011;42008;52.934;5.884;2022-10-31T06:50:59;253.77;;;46.43;;
56136;SDS011;42008;52.934;5.884;2022-10-31T06:53:26;230.20;;;45.20;;
56136;SDS011;42008;52.934;5.884;2022-10-31T06:55:54;271.17;;;48.30;;
56136;SDS011;42008;52.934;5.884;2022-10-31T06:58:20;57.97;;;31.47;;
56136;SDS011;42008;52.934;5.884;2022-10-31T07:00:46;85.87;;;39.23;;
56136;SDS011;42008;52.934;5.884;2022-10-31T07:03:12;65.53;;;34.30;;
56136;SDS011;42008;52.934;5.884;2022-10-31T07:05:39;76.73;;;38.73;;
56136;SDS011;42008;52.934;5.884;2022-10-31T07:08:06;83.37;;;42.10;;
56136;SDS011;42008;52.934;5.884;2022-10-31T07:10:34;75.60;;;40.10;;
56136;SDS011;42008;52.934;5.884;2022-10-31T07:13:01;74.77;;;39.83;;
56136;SDS011;42008;52.934;5.884;2022-10-31T07:15:30;67.10;;;38.67;;
56136;SDS011;42008;52.934;5.884;2022-10-31T07:17:59;71.63;;;38.67;;
56136;SDS011;42008;52.934;5.884;2022-10-31T07:20:26;62.63;;;36.27;;
56136;SDS011;42008;52.934;5.884;2022-10-31T07:22:52;68.53;;;38.17;;
56136;SDS011;42008;52.934;5.884;2022-10-31T07:25:17;70.83;;;38.37;;
56136;SDS011;42008;52.934;5.884;2022-10-31T07:27:43;65.40;;;38.07;;
56136;SDS011;42008;52.934;5.884;2022-10-31T07:30:09;73.30;;;39.13;;
56136;SDS011;42008;52.934;5.884;2022-10-31T07:32:46;71.50;;;39.77;;
56136;SDS011;42008;52.934;5.884;2022-10-31T07:35:17;64.47;;;38.10;;
56136;SDS011;42008;52.934;5.884;2022-10-31T07:37:47;66.67;;;36.30;;
56136;SDS011;42008;52.934;5.884;2022-10-31T07:40:14;64.77;;;38.93;;
56136;SDS011;42008;52.934;5.884;2022-10-31T07:42:41;64.37;;;38.50;;
56136;SDS011;42008;52.934;5.884;2022-10-31T07:45:12;62.97;;;37.17;;
56136;SDS011;42008;52.934;5.884;2022-10-31T07:47:39;58.20;;;34.97;;
56136;SDS011;42008;52.934;5.884;2022-10-31T07:50:06;61.10;;;36.97;;
56136;SDS011;42008;52.934;5.884;2022-10-31T07:52:33;55.87;;;34.90;;
56136;SDS011;42008;52.934;5.884;2022-10-31T07:54:58;59.13;;;35.57;;
56136;SDS011;42008;52.934;5.884;2022-10-31T07:57:24;57.07;;;35.27;;
56136;SDS011;42008;52.934;5.884;2022-10-31T07:59:50;58.90;;;36.20;;
56136;SDS011;42008;52.934;5.884;2022-10-31T08:02:15;64.87;;;36.17;;
56136;SDS011;42008;52.934;5.884;2022-10-31T08:04:41;60.43;;;36.67;;
56136;SDS011;42008;52.934;5.884;2022-10-31T08:07:06;60.93;;;34.23;;
56136;SDS011;42008;52.934;5.884;2022-10-31T08:09:32;59.37;;;33.10;;
56136;SDS011;42008;52.934;5.884;2022-10-31T08:11:58;53.47;;;31.00;;
56136;SDS011;42008;52.934;5.884;2022-10-31T08:14:24;46.57;;;30.03;;
56136;SDS011;42008;52.934;5.884;2022-10-31T08:16:49;41.63;;;27.77;;
56136;SDS011;42008;52.934;5.884;2022-10-31T08:19:15;43.83;;;27.50;;
56136;SDS011;42008;52.934;5.884;2022-10-31T08:21:40;40.20;;;26.80;;
56136;SDS011;42008;52.934;5.884;2022-10-31T08:24:06;41.47;;;26.53;;
56136;SDS011;42008;52.934;5.884;2022-10-31T08:26:31;33.37;;;25.13;;
56136;SDS011;42008;52.934;5.884;2022-10-31T08:28:57;51.00;;;26.47;;
56136;SDS011;42008;52.934;5.884;2022-10-31T08:31:23;34.30;;;24.00;;
56136;SDS011;42008;52.934;5.884;2022-10-31T08:33:51;38.87;;;24.53;;
56136;SDS011;42008;52.934;5.884;2022-10-31T08:36:17;33.63;;;24.77;;
56136;SDS011;42008;52.934;5.884;2022-10-31T08:38:43;36.50;;;22.97;;
56136;SDS011;42008;52.934;5.884;2022-10-31T08:41:09;36.90;;;23.70;;
56136;SDS011;42008;52.934;5.884;2022-10-31T08:43:34;32.33;;;22.23;;
56136;SDS011;42008;52.934;5.884;2022-10-31T08:46:00;31.23;;;21.00;;
56136;SDS011;42008;52.934;5.884;2022-10-31T08:48:26;30.03;;;21.10;;
56136;SDS011;42008;52.934;5.884;2022-10-31T08:50:55;34.03;;;21.43;;
56136;SDS011;42008;52.934;5.884;2022-10-31T08:53:23;28.83;;;20.50;;
56136;SDS011;42008;52.934;5.884;2022-10-31T08:55:48;33.43;;;21.60;;
56136;SDS011;42008;52.934;5.884;2022-10-31T08:58:15;26.57;;;20.17;;
56136;SDS011;42008;52.934;5.884;2022-10-31T09:00:42;29.73;;;20.13;;
56136;SDS011;42008;52.934;5.884;2022-10-31T09:03:10;31.33;;;21.47;;
56136;SDS011;42008;52.934;5.884;2022-10-31T09:05:43;27.60;;;18.67;;
56136;SDS011;42008;52.934;5.884;2022-10-31T09:08:10;26.77;;;18.83;;
56136;SDS011;42008;52.934;5.884;2022-10-31T09:10:36;32.57;;;18.43;;
56136;SDS011;42008;52.934;5.884;2022-10-31T09:13:03;26.50;;;19.10;;
56136;SDS011;42008;52.934;5.884;2022-10-31T09:15:34;24.57;;;18.73;;
56136;SDS011;42008;52.934;5.884;2022-10-31T09:18:03;27.33;;;18.90;;
56136;SDS011;42008;52.934;5.884;2022-10-31T09:20:30;27.33;;;18.57;;
56136;SDS011;42008;52.934;5.884;2022-10-31T09:22:58;30.53;;;19.73;;
56136;SDS011;42008;52.934;5.884;2022-10-31T09:25:28;28.50;;;18.80;;
56136;SDS011;42008;52.934;5.884;2022-10-31T09:27:55;26.93;;;19.60;;
56136;SDS011;42008;52.934;5.884;2022-10-31T09:30:25;28.27;;;19.60;;
56136;SDS011;42008;52.934;5.884;2022-10-31T09:32:56;31.97;;;20.23;;
56136;SDS011;42008;52.934;5.884;2022-10-31T09:35:23;30.47;;;20.20;;
56136;SDS011;42008;52.934;5.884;2022-10-31T09:37:55;28.43;;;18.80;;
56136;SDS011;42008;52.934;5.884;2022-10-31T09:40:35;28.40;;;19.00;;
56136;SDS011;42008;52.934;5.884;2022-10-31T09:54:52;20.60;;;16.27;;
56136;SDS011;42008;52.934;5.884;2022-10-31T09:57:27;24.27;;;16.23;;
56136;SDS011;42008;52.934;5.884;2022-10-31T09:59:56;22.57;;;15.87;;
56136;SDS011;42008;52.934;5.884;2022-10-31T10:02:24;19.23;;;14.83;;
56136;SDS011;42008;52.934;5.884;2022-10-31T10:05:18;24.30;;;15.77;;
56136;SDS011;42008;52.934;5.884;2022-10-31T10:10:47;26.73;;;16.63;;
56136;SDS011;42008;52.934;5.884;2022-10-31T10:13:24;25.03;;;17.13;;
56136;SDS011;42008;52.934;5.884;2022-10-31T10:21:11;24.30;;;16.37;;
56136;SDS011;42008;52.934;5.884;2022-10-31T10:23:53;21.13;;;16.13;;
56136;SDS011;42008;52.934;5.884;2022-10-31T10:26:36;21.70;;;16.42;;
56136;SDS011;42008;52.934;5.884;2022-10-31T10:32:10;24.70;;;17.53;;
56136;SDS011;42008;52.934;5.884;2022-10-31T10:34:44;24.27;;;17.00;;
56136;SDS011;42008;52.934;5.884;2022-10-31T10:37:19;29.20;;;18.07;;
56136;SDS011;42008;52.934;5.884;2022-10-31T10:40:17;23.60;;;18.23;;
56136;SDS011;42008;52.934;5.884;2022-10-31T10:42:50;30.07;;;18.83;;
56136;SDS011;42008;52.934;5.884;2022-10-31T10:45:42;28.77;;;20.10;;
56136;SDS011;42008;52.934;5.884;2022-10-31T10:48:32;26.43;;;19.97;;
56136;SDS011;42008;52.934;5.884;2022-10-31T10:51:10;28.53;;;20.50;;
56136;SDS011;42008;52.934;5.884;2022-10-31T10:53:49;30.10;;;20.10;;
56136;SDS011;42008;52.934;5.884;2022-10-31T10:56:40;28.10;;;20.47;;
56136;SDS011;42008;52.934;5.884;2022-10-31T10:59:22;31.27;;;21.17;;
56136;SDS011;42008;52.934;5.884;2022-10-31T11:01:48;34.53;;;21.67;;
56136;SDS011;42008;52.934;5.884;2022-10-31T11:06:58;29.43;;;21.33;;
56136;SDS011;42008;52.934;5.884;2022-10-31T11:09:28;28.50;;;21.07;;
56136;SDS011;42008;52.934;5.884;2022-10-31T11:11:54;34.37;;;22.43;;
56136;SDS011;42008;52.934;5.884;2022-10-31T11:14:21;32.67;;;22.00;;
56136;SDS011;42008;52.934;5.884;2022-10-31T11:16:53;30.67;;;21.17;;
56136;SDS011;42008;52.934;5.884;2022-10-31T11:19:31;30.23;;;20.77;;
56136;SDS011;42008;52.934;5.884;2022-10-31T11:22:05;28.77;;;20.67;;
56136;SDS011;42008;52.934;5.884;2022-10-31T11:24:35;31.93;;;20.67;;
56136;SDS011;42008;52.934;5.884;2022-10-31T11:27:23;32.20;;;20.23;;
56136;SDS011;42008;52.934;5.884;2022-10-31T11:29:50;29.90;;;20.57;;
56136;SDS011;42008;52.934;5.884;2022-10-31T11:32:19;31.57;;;19.10;;
56136;SDS011;42008;52.934;5.884;2022-10-31T11:34:49;29.77;;;18.97;;
56136;SDS011;42008;52.934;5.884;2022-10-31T11:37:23;31.23;;;18.27;;
56136;SDS011;42008;52.934;5.884;2022-10-31T11:39:52;25.30;;;16.17;;
56136;SDS011;42008;52.934;5.884;2022-10-31T11:42:25;29.10;;;16.15;;
56136;SDS011;42008;52.934;5.884;2022-10-31T11:44:54;24.93;;;15.93;;
56136;SDS011;42008;52.934;5.884;2022-10-31T11:47:26;23.00;;;15.17;;
56136;SDS011;42008;52.934;5.884;2022-10-31T11:49:53;19.03;;;12.63;;
56136;SDS011;42008;52.934;5.884;2022-10-31T11:52:24;19.83;;;12.80;;
56136;SDS011;42008;52.934;5.884;2022-10-31T11:57:41;26.67;;;12.50;;
56136;SDS011;42008;52.934;5.884;2022-10-31T12:00:23;19.30;;;12.38;;
56136;SDS011;42008;52.934;5.884;2022-10-31T12:02:51;20.57;;;12.17;;
56136;SDS011;42008;52.934;5.884;2022-10-31T12:05:35;23.33;;;13.10;;
56136;SDS011;42008;52.934;5.884;2022-10-31T12:08:03;25.00;;;13.67;;
56136;SDS011;42008;52.934;5.884;2022-10-31T12:10:31;25.50;;;13.53;;
56136;SDS011;42008;52.934;5.884;2022-10-31T12:13:37;26.83;;;13.10;;
56136;SDS011;42008;52.934;5.884;2022-10-31T12:16:28;21.03;;;11.67;;
56136;SDS011;42008;52.934;5.884;2022-10-31T12:19:00;25.00;;;11.77;;
56136;SDS011;42008;52.934;5.884;2022-10-31T12:24:27;16.50;;;10.43;;
56136;SDS011;42008;52.934;5.884;2022-10-31T12:29:57;18.33;;;10.10;;
56136;SDS011;42008;52.934;5.884;2022-10-31T12:44:12;17.73;;;8.83;;
56136;SDS011;42008;52.934;5.884;2022-10-31T12:47:05;15.97;;;9.67;;
56136;SDS011;42008;52.934;5.884;2022-10-31T12:52:38;17.33;;;9.80;;
56136;SDS011;42008;52.934;5.884;2022-10-31T12:58:40;14.30;;;8.97;;
56136;SDS011;42008;52.934;5.884;2022-10-31T13:01:20;16.43;;;9.27;;
56136;SDS011;42008;52.934;5.884;2022-10-31T13:04:21;15.77;;;8.67;;
56136;SDS011;42008;52.934;5.884;2022-10-31T13:06:51;14.33;;;9.20;;
56136;SDS011;42008;52.934;5.884;2022-10-31T13:09:32;13.85;;;8.80;;
56136;SDS011;42008;52.934;5.884;2022-10-31T13:14:34;15.18;;;9.32;;
56136;SDS011;42008;52.934;5.884;2022-10-31T13:17:06;14.98;;;8.48;;
56136;SDS011;42008;52.934;5.884;2022-10-31T13:19:44;16.02;;;8.75;;
56136;SDS011;42008;52.934;5.884;2022-10-31T13:22:18;18.00;;;9.35;;
56136;SDS011;42008;52.934;5.884;2022-10-31T13:25:04;15.25;;;8.98;;
56136;SDS011;42008;52.934;5.884;2022-10-31T13:35:16;16.27;;;8.57;;
56136;SDS011;42008;52.934;5.884;2022-10-31T13:37:49;15.88;;;8.68;;
56136;SDS011;42008;52.934;5.884;2022-10-31T13:43:33;16.42;;;9.27;;
56136;SDS011;42008;52.934;5.884;2022-10-31T13:49:00;15.70;;;8.98;;
56136;SDS011;42008;52.934;5.884;2022-10-31T13:51:27;18.90;;;8.98;;
56136;SDS011;42008;52.934;5.884;2022-10-31T13:56:21;19.48;;;8.93;;
56136;SDS011;42008;52.934;5.884;2022-10-31T14:01:26;15.23;;;8.32;;
56136;SDS011;42008;52.934;5.884;2022-10-31T14:06:54;15.80;;;7.57;;
56136;SDS011;42008;52.934;5.884;2022-10-31T14:11:52;12.17;;;7.60;;
56136;SDS011;42008;52.934;5.884;2022-10-31T14:14:20;16.27;;;7.30;;
56136;SDS011;42008;52.934;5.884;2022-10-31T14:16:52;13.90;;;7.30;;
56136;SDS011;42008;52.934;5.884;2022-10-31T14:19:21;16.23;;;7.03;;
56136;SDS011;42008;52.934;5.884;2022-10-31T14:21:47;12.07;;;6.80;;
56136;SDS011;42008;52.934;5.884;2022-10-31T14:24:15;12.47;;;7.20;;
56136;SDS011;42008;52.934;5.884;2022-10-31T14:26:50;14.90;;;7.33;;
56136;SDS011;42008;52.934;5.884;2022-10-31T14:31:44;17.10;;;7.30;;
56136;SDS011;42008;52.934;5.884;2022-10-31T14:34:27;17.07;;;7.27;;
56136;SDS011;42008;52.934;5.884;2022-10-31T14:51:14;15.93;;;7.27;;
56136;SDS011;42008;52.934;5.884;2022-10-31T14:53:47;15.57;;;7.57;;
56136;SDS011;42008;52.934;5.884;2022-10-31T14:58:49;17.38;;;7.47;;
56136;SDS011;42008;52.934;5.884;2022-10-31T15:01:23;20.40;;;8.37;;
56136;SDS011;42008;52.934;5.884;2022-10-31T15:04:36;14.77;;;8.27;;
56136;SDS011;42008;52.934;5.884;2022-10-31T15:06:54;14.63;;;8.00;;
56136;SDS011;42008;52.934;5.884;2022-10-31T15:09:30;13.00;;;7.30;;
56136;SDS011;42008;52.934;5.884;2022-10-31T15:14:46;21.03;;;7.30;;
56136;SDS011;42008;52.934;5.884;2022-10-31T15:17:11;13.80;;;6.80;;
56136;SDS011;42008;52.934;5.884;2022-10-31T15:19:37;17.90;;;7.03;;
56136;SDS011;42008;52.934;5.884;2022-10-31T15:22:03;15.13;;;7.33;;
56136;SDS011;42008;52.934;5.884;2022-10-31T15:24:33;14.30;;;6.90;;
56136;SDS011;42008;52.934;5.884;2022-10-31T15:27:01;16.80;;;7.70;;
56136;SDS011;42008;52.934;5.884;2022-10-31T15:29:27;22.73;;;7.40;;
56136;SDS011;42008;52.934;5.884;2022-10-31T15:34:41;16.33;;;7.47;;
56136;SDS011;42008;52.934;5.884;2022-10-31T15:37:12;14.97;;;7.47;;
56136;SDS011;42008;52.934;5.884;2022-10-31T15:39:39;16.05;;;7.93;;
56136;SDS011;42008;52.934;5.884;2022-10-31T15:42:14;15.97;;;7.93;;
56136;SDS011;42008;52.934;5.884;2022-10-31T15:44:43;14.60;;;8.20;;
56136;SDS011;42008;52.934;5.884;2022-10-31T15:47:18;17.73;;;8.40;;
56136;SDS011;42008;52.934;5.884;2022-10-31T15:52:14;12.93;;;7.80;;
56136;SDS011;42008;52.934;5.884;2022-10-31T15:54:54;13.32;;;8.00;;
56136;SDS011;42008;52.934;5.884;2022-10-31T15:57:24;16.77;;;8.43;;
56136;SDS011;42008;52.934;5.884;2022-10-31T15:59:53;15.93;;;8.50;;
56136;SDS011;42008;52.934;5.884;2022-10-31T16:02:21;17.20;;;7.43;;
56136;SDS011;42008;52.934;5.884;2022-10-31T16:04:52;15.73;;;8.40;;
56136;SDS011;42008;52.934;5.884;2022-10-31T16:07:20;17.63;;;7.80;;
56136;SDS011;42008;52.934;5.884;2022-10-31T16:12:15;16.03;;;8.83;;
56136;SDS011;42008;52.934;5.884;2022-10-31T16:14:41;14.70;;;7.73;;
56136;SDS011;42008;52.934;5.884;2022-10-31T16:17:10;16.27;;;8.60;;
56136;SDS011;42008;52.934;5.884;2022-10-31T16:19:47;14.50;;;8.73;;
56136;SDS011;42008;52.934;5.884;2022-10-31T16:22:24;20.97;;;9.10;;
56136;SDS011;42008;52.934;5.884;2022-10-31T16:24:57;13.50;;;8.07;;
56136;SDS011;42008;52.934;5.884;2022-10-31T16:27:28;21.50;;;8.50;;
56136;SDS011;42008;52.934;5.884;2022-10-31T16:29:57;21.50;;;8.37;;
56136;SDS011;42008;52.934;5.884;2022-10-31T16:32:30;16.30;;;8.83;;
56136;SDS011;42008;52.934;5.884;2022-10-31T16:35:12;15.15;;;7.60;;
56136;SDS011;42008;52.934;5.884;2022-10-31T16:37:43;14.17;;;8.20;;
56136;SDS011;42008;52.934;5.884;2022-10-31T16:40:10;17.97;;;7.73;;
56136;SDS011;42008;52.934;5.884;2022-10-31T16:42:38;16.50;;;8.23;;
56136;SDS011;42008;52.934;5.884;2022-10-31T16:45:07;17.23;;;8.03;;
56136;SDS011;42008;52.934;5.884;2022-10-31T16:47:42;16.67;;;8.20;;
56136;SDS011;42008;52.934;5.884;2022-10-31T16:50:25;13.93;;;8.90;;
56136;SDS011;42008;52.934;5.884;2022-10-31T16:52:52;16.87;;;8.30;;
56136;SDS011;42008;52.934;5.884;2022-10-31T16:55:18;15.83;;;8.57;;
56136;SDS011;42008;52.934;5.884;2022-10-31T16:57:55;16.23;;;8.80;;
56136;SDS011;42008;52.934;5.884;2022-10-31T17:00:22;16.20;;;7.97;;